• Join FlightAware (Why Join?)
  • Login
  • US Flag 
09:46PM EDT


 

Airport Tracker/Info


-or-


 

Live Flight TrackerFlight Track Log ✈ FIN666 ✈ 08-Oct-2013 ✈ EKCH / CPH - EFHK / HEL

Flight Track Log - Related Links

Times and Time Zones

All times are in EDT time to prevent confusion due to time zone crossing. See the FIN666 flight status page for this flight to view local times or setup timezone preferences in your user account.

Time Position Orientation Groundspeed Altitude Reporting Facility
EDT Latitude Longitude Course Direction KTS MPH feet Rate Location/Type
07:23AM 55.8453 13.1259 49° Northeast  Level Estimated
07:24AM 55.9207 13.2838 50° Northeast  Level Estimated
07:25AM 55.9958 13.4423 50° Northeast  Level Estimated
07:26AM 56.0731 13.6061 50° Northeast  Level Estimated
07:27AM 56.1501 13.7706 50° Northeast  Level Estimated
07:28AM 56.2268 13.9358 50° Northeast  Level Estimated
07:29AM 56.3034 14.1016 50° Northeast  Level Estimated
07:30AM 56.3797 14.2681 50° Northeast  Level Estimated
07:31AM 56.4558 14.4353 50° Northeast  Level Estimated
07:32AM 56.5317 14.6032 51° Northeast  Level Estimated
07:33AM 56.6074 14.7717 51° Northeast  Level Estimated
07:34AM 56.6828 14.9409 51° Northeast  Level Estimated
07:35AM 56.7580 15.1107 51° Northeast  Level Estimated
07:36AM 56.8330 15.2813 51° Northeast  Level Estimated
07:37AM 56.9077 15.4525 51° Northeast  Level Estimated
07:38AM 56.9822 15.6244 51° Northeast  Level Estimated
07:39AM 57.0565 15.7970 52° Northeast  Level Estimated
07:40AM 57.1316 15.9729 52° Northeast  Level Estimated
07:41AM 57.2065 16.1496 52° Northeast  Level Estimated
07:42AM 57.2812 16.3269 52° Northeast  Level Estimated
07:43AM 57.3556 16.5050 52° Northeast  Level Estimated
07:44AM 57.4297 16.6838 52° Northeast  Level Estimated
07:45AM 57.5036 16.8633 52° Northeast  Level Estimated
07:46AM 57.5772 17.0436 53° Northeast  Level Estimated
07:47AM 57.6506 17.2246 53° Northeast  Level Estimated
07:48AM 57.7237 17.4063 53° Northeast  Level Estimated
07:49AM 57.7966 17.5887 53° Northeast  Level Estimated
07:50AM 57.8692 17.7719 53° Northeast  Level Estimated
07:51AM 57.9415 17.9558 53° Northeast  Level Estimated
07:52AM 58.0136 18.1405 54° Northeast  Level Estimated
07:53AM 58.0854 18.3259 54° Northeast  Level Estimated
07:54AM 58.1569 18.5121 54° Northeast  Level Estimated
07:55AM 58.2281 18.6989 54° Northeast  Level Estimated
07:56AM 58.2991 18.8866 54° Northeast  Level Estimated
07:57AM 58.3698 19.0750 54° Northeast  Level Estimated
07:58AM 58.4402 19.2642 55° Northeast  Level Estimated
07:59AM 58.5104 19.4541 55° Northeast  Level Estimated
08:00AM 58.5802 19.6448 55° Northeast  Level Estimated
08:01AM 58.6498 19.8362 55° Northeast  Level Estimated
08:02AM 58.7191 20.0284 55° Northeast  Level Estimated
08:03AM 58.7881 20.2214 55° Northeast  Level Estimated
08:04AM 58.8568 20.4151 56° Northeast  Level Estimated
08:05AM 58.9252 20.6096 56° Northeast  Level Estimated
08:06AM 58.9934 20.8049 56° Northeast  Level Estimated
08:07AM 59.0612 21.0009 56° Northeast  Level Estimated
08:08AM 59.1287 21.1978 56° Northeast  Level Estimated
08:09AM 59.1960 21.3953 56° Northeast  Level Estimated
08:10AM 59.2629 21.5937 57° Northeast  Level Estimated
08:11AM 59.3296 21.7929 57° Northeast  Level Estimated
08:12AM 59.3959 21.9928 57° Northeast  Level Estimated
08:13AM 59.4619 22.1935 57° Northeast  Level Estimated
08:14AM 59.5276 22.3950 57° Northeast  Level Estimated
08:15AM 59.5930 22.5973 57° Northeast  Level Estimated
08:16AM 59.6581 22.8004 58° Northeast  Level Estimated
08:17AM 59.7229 23.0042 58° Northeast  Level Estimated
08:18AM 59.7874 23.2089 58° Northeast  Level Estimated
08:19AM 59.8515 23.4143 58° Northeast  Level Estimated
08:20AM 59.9153 23.6206 58° Northeast  Level Estimated
08:21AM 59.9788 23.8276 58° Northeast  Level Estimated
08:22AM 60.0420 24.0354 59° Northeast  Level Estimated
08:23AM 60.1048 24.2440 59° Northeast  Level Estimated
08:24AM 60.1674 24.4534 59° Northeast  Level Estimated
08:25AM 60.2295 24.6636 59° Northeast  Level Estimated
08:26AM 60.2914 24.8746 59° Northeast  Level Estimated
08:27AM 60.3172 24.9633 60° Northeast  Level Estimated
08:28AM 60.3172 24.9633 37° Northeast  Level Estimated
08:29AM 60.3172 24.9633 37° Northeast  Level Estimated
08:30AM 60.3172 24.9633 37° Northeast  Level Estimated
08:31AM 60.3172 24.9633 37° Northeast  Level Estimated
08:32AM 60.3172 24.9633 37° Northeast  Level Estimated
08:33AM 60.3172 24.9633 37° Northeast  Level Estimated
08:34AM 60.3172 24.9633 37° Northeast  Level Estimated
08:35AM 60.3172 24.9633 37° Northeast  Level Estimated
08:36AM 60.3172 24.9633 37° Northeast  Level Estimated
08:37AM 60.3172 24.9633 37° Northeast  Level Estimated
08:38AM 60.3172 24.9633 37° Northeast  Level Estimated
08:39AM 60.3172 24.9633 37° Northeast  Level Estimated
08:40AM 60.3172 24.9633 37° Northeast  Level Estimated
08:41AM 60.3172 24.9633 37° Northeast  Level Estimated
08:42AM 60.3172 24.9633 37° Northeast  Level Estimated